Paro, Bhutan
Current Conditions -  °F | °C
As of 3:20 AM on Saturday 01 Nov 2014 (Local Time) from VGHS Reporting Station
Haze Haze  
Wind Chill: 23°   Ceiling: Unl
Heat Index: 23°   Visibility: 2.5mi
Dew Point: 19°   Wind: 0mph
Humidity: 78%   Direction: NA
Pressure: 29.8"   Gusts: NA
Location:  27.51°N, 89.36°E
Report Text: VGHS 312120Z 00000KT 4000 HZ SCT100 23/19 Q1009 NOSIG
Loading
Personal Weather Stations






























Interactive Weather Map New forecast layout! Learn more

10-Day Weather Forecast

Advertisements
Track Severe Weather on mobile